deformed-offering

Nearby METAR Reports

 

KNUQ - Moffett Nas/Mtn, California, USA
Distance from station: N 9mi, 14km
Updated: Mon, 22-Oct-2018 11:56am PDT
Overcast
Overcast
 Wind from NNE
Wind: NNE 8 mph , 13 km/h
Temperature: 59°F , 15°C
Dew Point: 50°F , 10°C
Humidity: 72%
Barometer: 29.99 inHg , 1015.6 hPa
Clouds: Overcast
Visibility: 9 miles , 14 km
Cloud details: Overcast 1500 ft
2018/10/22 18:56 KNUQ 221856Z 02007KT 9SM OVC015 15/10 A2999 RMK AO2 SLP158 T01500100
KSJC - San Jose, California, USA
Distance from station: NE 9mi, 14km
Updated: Mon, 22-Oct-2018 11:53am PDT
Haze, Overcast
Haze, Overcast
 Wind from NNE
Wind: NNE 5 mph , 7 km/h
Temperature: 57°F , 14°C
Dew Point: 50°F , 10°C
Humidity: 77%
Barometer: 29.98 inHg , 1015.2 hPa
Summary: Haze
Clouds: Overcast
Visibility: 6 miles , 10 km
Cloud details: Few Clouds 300 ft
Mostly Cloudy 1300 ft
Overcast 1500 ft
2018/10/22 18:53 KSJC 221853Z 02004KT 6SM HZ FEW003 BKN013 OVC015 14/10 A2998 RMK AO2 SLP152 T01440100
 
KRHV - San Jose/Reid, California, USA
Distance from station: ENE 12mi, 19km
Updated: Mon, 22-Oct-2018 11:47am PDT
Mostly Cloudy
Mostly Cloudy
 Wind from N
Wind: N 9 mph , 15 km/h
Temperature: 61°F , 16°C
Dew Point: 52°F , 11°C
Humidity: 72%
Barometer: 29.96 inHg , 1014.6 hPa
Clouds: Mostly Cloudy
Visibility: 7 miles , 11 km
Cloud details: Mostly Cloudy 1800 ft
2018/10/22 18:47 KRHV 221847Z 35008KT 7SM BKN018 16/11 A2996
KPAO - Palo Alto, California, USA
Distance from station: NNW 14mi, 23km
Updated: Mon, 22-Oct-2018 12:12pm PDT
Partly Cloudy
Partly Cloudy
 Wind from N
Wind: N 9 mph , 15 km/h
Temperature: 61°F , 16°C
Dew Point: 52°F , 11°C
Humidity: 72%
Barometer: 29.99 inHg , 1015.6 hPa
Clouds: Partly Cloudy
Visibility: 8 miles , 13 km
Cloud details: Partly Cloudy 1700 ft
2018/10/22 19:12 KPAO 221912Z 36008KT 8SM SCT017 16/11 A2999
 
KSQL - San Carlos Airpo, California, USA
Distance from station: NW 21mi, 34km
Updated: Mon, 22-Oct-2018 11:50am PDT
Partly Cloudy
Partly Cloudy
 Wind from ENE
Wind: ENE 7 mph , 11 km/h
Temperature: 59°F , 15°C
Dew Point: 50°F , 10°C
Humidity: 72%
Barometer: 29.98 inHg , 1015.2 hPa
Clouds: Partly Cloudy
Visibility: 10 miles , 16 km
Cloud details: Partly Cloudy 1800 ft
2018/10/22 18:50 KSQL 221850Z 06006KT 10SM SCT018 15/10 A2998
KE16 - San Martin, California, USA
Distance from station: ESE 27mi, 43km
Updated: Mon, 22-Oct-2018 12:15pm PDT
Clear
Clear
 Wind from NNW
Wind: NNW 9 mph , 15 km/h
Temperature: 64°F , 18°C
Dew Point: 48°F , 9°C
Humidity: 56%
Barometer: 29.97 inHg , 1014.9 hPa
Clouds: Clear
Visibility: 10 miles , 16 km
2018/10/22 19:15 KE16 221915Z AUTO 33008KT 10SM CLR 18/09 A2997 RMK AO2
 
KWVI - Watsonville, California, USA
Distance from station: SSE 27mi, 44km
Updated: Mon, 22-Oct-2018 12:12pm PDT
Partly Cloudy
Partly Cloudy
 Wind from WNW
Wind: WNW 5 mph , 7 km/h
Temperature: 61°F , 16°C
Dew Point: 52°F , 11°C
Humidity: 72%
Barometer: 29.97 inHg , 1014.9 hPa
Clouds: Partly Cloudy
Visibility: 10 miles , 16 km
Cloud details: Partly Cloudy 900 ft
2018/10/22 19:12 KWVI 221912Z AUTO 29004KT 10SM SCT009 16/11 A2997 RMK AO2 T01560111
KHWD - Hayward, California, USA
Distance from station: N 28mi, 44km
Updated: Mon, 22-Oct-2018 12:23pm PDT
Partly Cloudy
Partly Cloudy
 Wind from WNW
Wind: WNW 7 mph , 11 km/h
Temperature: 61°F , 16°C
Dew Point: 50°F , 10°C
Humidity: 68%
Barometer: 29.97 inHg , 1014.9 hPa
Clouds: Partly Cloudy
Visibility: 10 miles , 16 km
Cloud details: Partly Cloudy 1600 ft
2018/10/22 19:23 KHWD 221923Z 29006KT 10SM SCT016 16/10 A2997 RMK AO2 T01610100
 
KSFO - San Francisco, California, USA
Distance from station: NW 30mi, 49km
Updated: Mon, 22-Oct-2018 11:56am PDT
Partly Cloudy
Partly Cloudy
 Wind from WNW
Wind: WNW 7 mph , 11 km/h
Temperature: 61°F , 16°C
Dew Point: 48°F , 9°C
Humidity: 63%
Barometer: 29.97 inHg , 1014.9 hPa
Clouds: Partly Cloudy
Visibility: 10 miles , 16 km
Cloud details: Few Clouds 1000 ft
Partly Cloudy 1800 ft
2018/10/22 18:56 KSFO 221856Z 30006KT 10SM FEW010 SCT018 16/09 A2997 RMK AO2 SLP148 T01560094
KHAF - Half Moon Bay, California, USA
Distance from station: WNW 31mi, 50km
Updated: Wed, 03-Oct-2018 1:40pm PDT
NOT Current
Haze, Mostly cloudy
Haze, Mostly cloudy
 Wind from S
Wind: S 5 mph , 7 km/h
Temperature: 64°F , 18°C
Dew Point: 59°F , 15°C
Humidity: 83%
Barometer: 29.92 inHg , 1013.2 hPa
Summary: Haze
Clouds: Mostly Cloudy
Visibility: 4 miles , 6 km
Cloud details: Few Clouds 2100 ft
Mostly Cloudy 3000 ft
2018/10/03 20:40 KHAF 032040Z AUTO 19004KT 4SM HZ FEW021 BKN030 18/15 A2992 RMK AO2
 
KOAK - Oakland, California, USA
Distance from station: NNW 31mi, 50km
Updated: Mon, 22-Oct-2018 12:21pm PDT
Partly Cloudy
Partly Cloudy
 Wind from WSW
Wind: WSW 7 mph , 11 km/h
Temperature: 61°F , 16°C
Dew Point: 50°F , 10°C
Humidity: 68%
Barometer: 29.98 inHg , 1015.2 hPa
Clouds: Partly Cloudy
Visibility: 10 miles , 16 km
Cloud details: Partly Cloudy 1600 ft
2018/10/22 19:21 KOAK 221921Z 24006KT 10SM SCT016 16/10 A2998 RMK AO2 T01560100
KLVK - Livermore, California, USA
Distance from station: NNE 31mi, 51km
Updated: Mon, 22-Oct-2018 11:53am PDT
Clear
Clear
 Wind from W
Wind: W 6 mph , 9 km/h
Temperature: 63°F , 17°C
Dew Point: 50°F , 10°C
Humidity: 64%
Barometer: 29.96 inHg , 1014.6 hPa
Clouds: Clear
Visibility: 10 miles , 16 km
2018/10/22 18:53 KLVK 221853Z 26005KT 10SM CLR 17/10 A2996 RMK AO2 SLP143 T01720100
 
KCVH - Hollister Muni, California, USA
Distance from station: SE 42mi, 68km
Updated: Mon, 22-Oct-2018 12:15pm PDT
Clear
Clear
 Wind from calm
Wind: Calm
Temperature: 63°F , 17°C
Dew Point: 50°F , 10°C
Humidity: 64%
Barometer: 29.95 inHg , 1014.2 hPa
Clouds: Clear
Visibility: 7 miles , 11 km
2018/10/22 19:15 KCVH 221915Z AUTO 00000KT 7SM CLR 17/10 A2995 RMK A01
KSNS - Salinas, California, USA
Distance from station: SSE 48mi, 77km
Updated: Mon, 22-Oct-2018 11:53am PDT
Haze, Partly cloudy
Haze, Partly cloudy
 Wind from calm
Wind: Calm
Temperature: 59°F , 15°C
Dew Point: 52°F , 11°C
Humidity: 77%
Barometer: 29.96 inHg , 1014.6 hPa
Summary: Haze
Clouds: Partly Cloudy
Visibility: 5 miles , 8 km
Cloud details: Partly Cloudy 1100 ft
2018/10/22 18:53 KSNS 221853Z 00000KT 5SM HZ SCT011 15/11 A2996 RMK AO2 SLP153 T01500111
 
KMRY - Monterey, California, USA
Distance from station: SSE 49mi, 78km
Updated: Mon, 22-Oct-2018 12:01pm PDT
Haze, Mostly cloudy
Haze, Mostly cloudy
 Wind from W
Wind: W 7 mph , 11 km/h
Temperature: 57°F , 14°C
Dew Point: 52°F , 11°C
Humidity: 82%
Barometer: 29.98 inHg , 1015.2 hPa
Summary: Haze
Clouds: Mostly Cloudy
Visibility: 6 miles , 10 km
Cloud details: Mostly Cloudy 700 ft
2018/10/22 19:01 KMRY 221901Z 27006KT 6SM HZ BKN007 14/11 A2998 RMK AO2 T01390106
KCCR - Concord, California, USA
Distance from station: N 50mi, 81km
Updated: Mon, 22-Oct-2018 11:53am PDT
Clear
Clear
 Wind from NNW
Wind: NNW 12 mph , 19 km/h
Temperature: 66°F , 19°C
Dew Point: 50°F , 10°C
Humidity: 56%
Barometer: 29.96 inHg , 1014.6 hPa
Clouds: Clear
Visibility: 10 miles , 16 km
2018/10/22 18:53 KCCR 221853Z 34010KT 10SM CLR 19/10 A2996 RMK AO2 SLP131 T01890100 $
deformed-offering